TimeCST,TemperatureF,Dew PointF,Humidity,Sea Level PressureIn,VisibilityMPH,Wind Direction,Wind SpeedMPH,Gust SpeedMPH,PrecipitationIn,Events,Conditions,WindDirDegrees,DateUTC
12:10 AM,28.9,28.4,98,29.92,2.0,Calm,Calm,-,N/A,,Overcast,0,2010-01-19 06:10:00
12:30 AM,28.8,28.4,99,29.91,1.5,SE,3.5,-,N/A,,Overcast,130,2010-01-19 06:30:00
12:50 AM,28.4,28.2,99,29.90,2.5,Calm,Calm,-,N/A,,Overcast,0,2010-01-19 06:50:00
1:10 AM,28.8,28.4,99,29.90,1.8,SE,4.6,-,N/A,,Overcast,130,2010-01-19 07:10:00
1:30 AM,28.9,28.4,98,29.90,1.2,ESE,4.6,-,N/A,,Overcast,120,2010-01-19 07:30:00
1:50 AM,28.8,28.4,99,29.90,1.8,Calm,Calm,-,N/A,,Overcast,0,2010-01-19 07:50:00
2:10 AM,29.1,28.8,99,29.91,0.8,Calm,Calm,-,N/A,,Overcast,0,2010-01-19 08:10:00
2:30 AM,29.3,28.9,99,29.90,0.8,East,3.5,-,N/A,,Overcast,90,2010-01-19 08:30:00
2:50 AM,29.3,28.9,99,29.90,0.8,ESE,3.5,-,N/A,,Overcast,110,2010-01-19 08:50:00
3:10 AM,29.3,28.9,99,29.89,0.8,East,4.6,-,N/A,,Overcast,100,2010-01-19 09:10:00
3:30 AM,29.3,29.1,99,29.89,1.2,East,4.6,-,N/A,,Overcast,100,2010-01-19 09:30:00
3:50 AM,29.3,29.1,99,29.88,1.2,East,4.6,-,N/A,,Overcast,100,2010-01-19 09:50:00
4:10 AM,29.7,29.3,99,29.88,1.2,ENE,3.5,-,N/A,,Overcast,70,2010-01-19 10:10:00
4:30 AM,29.8,29.3,98,29.88,1.5,East,3.5,-,N/A,,Overcast,90,2010-01-19 10:30:00
4:50 AM,29.8,29.5,99,29.88,1.5,ENE,3.5,-,N/A,,Overcast,70,2010-01-19 10:50:00
5:10 AM,29.8,29.3,98,29.87,1.5,ENE,3.5,-,N/A,,Overcast,70,2010-01-19 11:10:00
5:30 AM,30.0,29.8,99,29.88,1.5,Calm,Calm,-,N/A,,Overcast,0,2010-01-19 11:30:00
5:50 AM,30.0,29.7,99,29.87,1.2,Calm,Calm,-,N/A,,Overcast,0,2010-01-19 11:50:00
6:10 AM,30.0,29.8,99,29.87,1.0,East,3.5,-,N/A,,Overcast,80,2010-01-19 12:10:00
6:30 AM,30.2,30.0,99,29.87,1.0,East,3.5,-,N/A,,Overcast,80,2010-01-19 12:30:00
6:50 AM,30.2,30.0,99,29.87,1.0,East,3.5,-,N/A,,Overcast,80,2010-01-19 12:50:00
7:10 AM,30.2,30.0,99,29.86,1.2,ENE,4.6,-,N/A,,Overcast,70,2010-01-19 13:10:00
7:30 AM,30.6,30.2,99,29.86,1.5,East,4.6,-,N/A,,Overcast,80,2010-01-19 13:30:00
7:50 AM,30.7,30.6,99,29.85,2.0,East,5.8,-,N/A,,Overcast,90,2010-01-19 13:50:00
8:10 AM,30.9,30.7,99,29.85,1.2,East,5.8,-,N/A,,Overcast,90,2010-01-19 14:10:00
8:30 AM,31.1,30.9,99,29.85,1.5,East,6.9,-,N/A,,Overcast,90,2010-01-19 14:30:00
8:50 AM,31.3,31.1,99,29.85,2.5,East,6.9,-,N/A,,Overcast,90,2010-01-19 14:50:00
9:10 AM,31.5,31.1,99,29.85,3.0,ESE,4.6,-,N/A,,Overcast,110,2010-01-19 15:10:00
9:30 AM,31.8,31.6,99,29.85,2.0,East,4.6,-,N/A,,Overcast,100,2010-01-19 15:30:00
9:50 AM,32.0,31.6,99,29.86,1.5,East,4.6,-,N/A,,Overcast,90,2010-01-19 15:50:00
10:10 AM,32.0,31.6,99,29.86,1.5,ESE,4.6,-,N/A,,Overcast,110,2010-01-19 16:10:00
10:30 AM,32.0,31.8,99,29.86,1.2,East,5.8,-,N/A,,Overcast,90,2010-01-19 16:30:00
10:50 AM,32.0,32.0,100,29.86,1.8,East,4.6,-,N/A,,Overcast,90,2010-01-19 16:50:00
11:10 AM,32.0,32.0,100,29.85,1.0,Calm,Calm,-,N/A,,Overcast,0,2010-01-19 17:10:00
11:30 AM,32.0,32.0,100,29.84,0.5,East,4.6,-,N/A,Fog,Fog,90,2010-01-19 17:30:00
11:50 AM,32.0,32.0,100,29.85,0.8,East,4.6,-,N/A,,Overcast,100,2010-01-19 17:50:00
12:10 PM,32.0,32.0,100,29.83,0.5,East,6.9,-,N/A,Fog,Fog,90,2010-01-19 18:10:00
12:30 PM,32.0,32.0,100,29.81,0.5,East,5.8,-,N/A,Fog,Fog,80,2010-01-19 18:30:00
12:50 PM,32.2,32.0,99,29.80,0.5,East,8.1,-,N/A,Fog,Fog,80,2010-01-19 18:50:00
1:10 PM,32.4,32.0,99,29.78,1.0,East,6.9,-,N/A,,Overcast,80,2010-01-19 19:10:00
1:30 PM,32.4,32.0,99,29.77,1.2,East,8.1,-,N/A,,Overcast,80,2010-01-19 19:30:00
1:50 PM,32.4,32.0,99,29.76,1.5,East,8.1,-,N/A,,Overcast,80,2010-01-19 19:50:00
2:10 PM,32.4,32.0,99,29.75,2.0,ENE,8.1,-,N/A,,Overcast,70,2010-01-19 20:10:00
2:30 PM,32.5,32.2,99,29.74,2.5,East,9.2,-,N/A,,Overcast,80,2010-01-19 20:30:00
2:50 PM,32.7,32.2,98,29.74,2.5,ENE,9.2,-,N/A,,Overcast,70,2010-01-19 20:50:00
3:10 PM,32.4,32.0,99,29.74,2.5,ENE,9.2,-,N/A,,Overcast,70,2010-01-19 21:10:00
3:30 PM,32.5,32.2,99,29.73,3.0,ENE,10.4,-,N/A,,Overcast,60,2010-01-19 21:30:00
3:50 PM,32.4,32.0,99,29.72,2.5,ENE,12.7,16.1,N/A,,Overcast,70,2010-01-19 21:50:00
4:10 PM,32.4,32.0,99,29.73,2.5,East,6.9,-,N/A,,Overcast,80,2010-01-19 22:10:00
4:30 PM,32.2,32.0,99,29.72,1.8,East,9.2,-,N/A,,Overcast,80,2010-01-19 22:30:00
4:50 PM,32.4,32.0,99,29.72,1.2,East,10.4,-,N/A,,Overcast,80,2010-01-19 22:50:00
5:10 PM,32.2,32.0,99,29.72,0.8,East,8.1,-,N/A,,Overcast,90,2010-01-19 23:10:00
5:30 PM,32.4,32.0,99,29.72,1.2,East,10.4,-,N/A,,Overcast,90,2010-01-19 23:30:00
5:50 PM,32.4,32.0,99,29.71,1.2,East,12.7,-,N/A,,Overcast,90,2010-01-19 23:50:00
6:10 PM,32.5,32.2,99,29.71,1.2,East,9.2,-,N/A,,Overcast,90,2010-01-20 00:10:00
6:30 PM,32.9,32.4,98,29.71,1.2,East,9.2,-,N/A,,Overcast,90,2010-01-20 00:30:00
6:50 PM,32.9,32.5,99,29.71,1.5,East,10.4,-,N/A,,Overcast,90,2010-01-20 00:50:00
7:10 PM,32.9,32.7,99,29.71,1.2,East,8.1,-,N/A,,Overcast,100,2010-01-20 01:10:00
7:30 PM,32.9,32.5,99,29.71,1.0,East,10.4,-,N/A,,Overcast,100,2010-01-20 01:30:00
7:50 PM,32.9,32.7,99,29.70,1.2,East,9.2,-,N/A,Rain,Light Rain,90,2010-01-20 01:50:00
8:10 PM,33.1,32.9,99,29.69,1.2,East,8.1,-,N/A,,Overcast,80,2010-01-20 02:10:00
8:30 PM,33.1,32.9,99,29.68,1.8,East,9.2,-,N/A,Rain,Light Rain,90,2010-01-20 02:30:00
8:50 PM,33.3,32.9,99,29.66,2.5,East,11.5,-,0.01,,Overcast,90,2010-01-20 02:50:00
9:10 PM,33.4,33.1,99,29.67,4.0,East,10.4,-,N/A,,Overcast,100,2010-01-20 03:10:00
9:30 PM,33.3,32.9,99,29.66,3.0,East,10.4,-,N/A,,Overcast,90,2010-01-20 03:30:00
9:50 PM,33.3,32.9,99,29.66,3.0,East,10.4,-,N/A,,Overcast,90,2010-01-20 03:50:00
10:10 PM,33.8,33.6,99,29.65,3.0,East,9.2,-,N/A,,Overcast,100,2010-01-20 04:10:00
10:30 PM,33.8,33.6,99,29.64,3.0,East,10.4,16.1,N/A,Rain,Light Rain,100,2010-01-20 04:30:00
10:50 PM,33.8,33.4,99,29.64,2.5,East,10.4,-,0.01,Rain,Rain,100,2010-01-20 04:50:00
11:10 PM,33.8,33.3,98,29.63,2.5,East,9.2,-,0.01,Rain,Light Rain,100,2010-01-20 05:10:00
11:30 PM,33.8,33.3,98,29.62,2.5,East,9.2,-,0.04,Rain,Light Rain,100,2010-01-20 05:30:00
11:50 PM,33.8,33.3,98,29.61,4.0,Calm,Calm,-,0.05,Rain,Light Rain,0,2010-01-20 05:50:00